createdAt,value
2018-03-31T00:02:24.748Z,77.30
2018-03-31T00:04:51.331Z,80.70
2018-03-31T00:07:18.225Z,79.10
2018-03-31T00:09:46.160Z,75.80
2018-03-31T00:14:50.847Z,77.80
2018-03-31T00:17:17.449Z,77.30
2018-03-31T00:19:44.053Z,79.40
2018-03-31T00:22:10.707Z,75.90
2018-03-31T00:24:37.288Z,73.50
2018-03-31T00:27:04.871Z,75.90
2018-03-31T00:29:32.537Z,75.60
2018-03-31T00:34:26.889Z,78.90
2018-03-31T00:36:53.522Z,79.20
2018-03-31T00:39:20.381Z,83.40
2018-03-31T00:41:47.924Z,79.70
2018-03-31T00:44:15.037Z,77.50
2018-03-31T00:46:42.435Z,73.80
2018-03-31T00:49:09.016Z,73.40
2018-03-31T00:51:36.661Z,74.10
2018-03-31T00:54:03.235Z,75.80
2018-03-31T00:56:29.832Z,74.90
2018-03-31T00:58:56.468Z,74.60
2018-03-31T01:03:49.955Z,71.30
2018-03-31T01:06:16.594Z,73.40
2018-03-31T01:08:43.160Z,73.90
2018-03-31T01:11:09.728Z,75.50
2018-03-31T01:13:37.194Z,75.90
2018-03-31T01:16:03.798Z,77.70
2018-03-31T01:18:30.392Z,76.90
2018-03-31T01:20:57.041Z,80.00
2018-03-31T01:23:23.606Z,80.20
2018-03-31T01:25:50.194Z,78.70
2018-03-31T01:30:45.258Z,78.30
2018-03-31T01:33:12.275Z,77.30
2018-03-31T01:35:39.852Z,74.80
2018-03-31T01:40:46.508Z,77.70
2018-03-31T01:43:14.066Z,76.40
2018-03-31T01:45:40.655Z,77.00
2018-03-31T01:48:07.277Z,78.60
2018-03-31T01:50:33.872Z,80.40
2018-03-31T01:53:01.594Z,82.40
2018-03-31T01:55:28.228Z,80.30
2018-03-31T01:57:54.815Z,84.00
2018-03-31T02:00:21.374Z,83.60
2018-03-31T02:02:48.063Z,84.30
2018-03-31T02:05:14.632Z,85.00
2018-03-31T02:07:41.581Z,84.20
2018-03-31T02:10:09.027Z,86.30
2018-03-31T02:12:35.603Z,85.00
2018-03-31T02:15:03.086Z,85.70
2018-03-31T02:17:30.578Z,87.10
2018-03-31T02:19:58.180Z,85.20
2018-03-31T02:22:24.751Z,85.30
2018-03-31T02:24:52.357Z,86.40
2018-03-31T02:27:18.954Z,87.30
2018-03-31T02:29:45.531Z,89.20
2018-03-31T02:32:12.190Z,89.40
2018-03-31T02:34:38.785Z,89.00
2018-03-31T02:37:05.353Z,89.50
2018-03-31T02:39:31.973Z,92.40
2018-03-31T02:41:59.415Z,98.50
2018-03-31T02:44:25.980Z,99.90
2018-03-31T02:46:52.610Z,99.90
2018-03-31T02:49:19.221Z,99.80
2018-03-31T02:51:45.812Z,99.70
2018-03-31T02:54:12.471Z,99.90
2018-03-31T02:56:39.099Z,99.90
2018-03-31T02:59:05.724Z,97.20
2018-03-31T03:01:33.192Z,92.10
2018-03-31T03:06:39.041Z,95.20
2018-03-31T03:09:05.626Z,92.50
2018-03-31T03:11:32.653Z,94.60
2018-03-31T03:13:59.926Z,89.70
2018-03-31T03:16:27.468Z,90.80
2018-03-31T03:18:54.036Z,97.20
2018-03-31T03:21:20.659Z,96.60
2018-03-31T03:23:47.505Z,96.60
2018-03-31T03:26:15.036Z,96.30
2018-03-31T03:28:41.694Z,98.90
2018-03-31T03:31:08.255Z,99.90
2018-03-31T03:33:34.847Z,99.90
2018-03-31T03:38:30.386Z,99.90
2018-03-31T03:40:55.086Z,99.90
2018-03-31T03:43:21.717Z,99.90
2018-03-31T03:45:48.311Z,99.90
2018-03-31T03:48:14.922Z,99.90
2018-03-31T03:50:41.567Z,99.90
2018-03-31T03:53:08.136Z,99.90
2018-03-31T03:55:34.735Z,99.90
2018-03-31T03:58:04.133Z,96.50
2018-03-31T04:00:28.745Z,94.80
2018-03-31T04:02:55.339Z,97.30
2018-03-31T04:05:21.996Z,99.90
2018-03-31T04:07:48.596Z,99.90
2018-03-31T04:10:15.180Z,99.90
2018-03-31T04:12:41.836Z,99.90
2018-03-31T04:15:09.291Z,99.90
2018-03-31T04:17:35.922Z,99.90
2018-03-31T04:20:02.569Z,99.90
2018-03-31T04:22:29.148Z,99.90
2018-03-31T04:24:55.728Z,99.90
2018-03-31T04:30:00.372Z,99.90
2018-03-31T04:32:28.000Z,99.90
2018-03-31T04:34:54.562Z,99.90
2018-03-31T04:37:22.621Z,99.90
2018-03-31T04:39:50.160Z,99.90
2018-03-31T04:42:16.753Z,99.90
2018-03-31T04:44:43.329Z,99.90
2018-03-31T04:47:10.816Z,99.90
2018-03-31T04:49:38.363Z,99.90
2018-03-31T04:52:04.960Z,99.90
2018-03-31T04:54:31.589Z,99.90
2018-03-31T04:56:58.162Z,99.90
2018-03-31T04:59:24.724Z,99.90
2018-03-31T05:01:51.372Z,99.90
2018-03-31T05:04:17.956Z,99.90
2018-03-31T05:06:44.938Z,99.90
2018-03-31T05:09:11.589Z,99.90
2018-03-31T05:11:38.165Z,99.90
2018-03-31T05:14:04.742Z,99.90
2018-03-31T05:16:32.270Z,99.90
2018-03-31T05:18:58.869Z,99.90
2018-03-31T05:21:25.467Z,99.90
2018-03-31T05:23:53.064Z,99.90
2018-03-31T05:26:20.531Z,99.90
2018-03-31T05:28:47.497Z,99.90
2018-03-31T05:31:15.025Z,99.90
2018-03-31T05:33:41.635Z,99.90
2018-03-31T05:36:09.070Z,99.90
2018-03-31T05:38:35.713Z,99.90
2018-03-31T05:41:02.315Z,99.90
2018-03-31T05:43:29.711Z,99.90
2018-03-31T05:45:57.276Z,99.90
2018-03-31T05:48:23.843Z,99.90
2018-03-31T05:50:50.435Z,99.90
2018-03-31T05:55:57.140Z,99.90
2018-03-31T05:58:23.825Z,99.90
2018-03-31T06:00:51.269Z,99.90
2018-03-31T06:03:18.796Z,99.90
2018-03-31T06:05:45.439Z,99.90
2018-03-31T06:08:12.048Z,99.90
2018-03-31T06:10:39.087Z,99.90
2018-03-31T06:15:34.322Z,99.90
2018-03-31T06:18:00.890Z,99.90
2018-03-31T06:20:27.552Z,99.90
2018-03-31T06:22:54.404Z,99.90
2018-03-31T06:25:20.988Z,99.90
2018-03-31T06:27:48.480Z,99.90
2018-03-31T06:30:16.288Z,99.90
2018-03-31T06:32:42.906Z,99.90
2018-03-31T06:35:10.506Z,99.90
2018-03-31T06:37:38.025Z,99.90
2018-03-31T06:42:31.616Z,99.90
2018-03-31T06:44:58.970Z,99.90
2018-03-31T06:47:25.589Z,99.90
2018-03-31T06:49:52.207Z,99.90
2018-03-31T06:52:18.773Z,99.90
2018-03-31T06:54:45.416Z,99.90
2018-03-31T06:57:12.311Z,99.90
2018-03-31T06:59:38.900Z,99.90
2018-03-31T07:02:05.462Z,99.90
2018-03-31T07:04:32.100Z,99.90
2018-03-31T07:06:59.676Z,99.90
2018-03-31T07:09:26.250Z,99.90
2018-03-31T07:11:52.911Z,99.90
2018-03-31T07:14:19.491Z,99.90
2018-03-31T07:16:46.881Z,99.90
2018-03-31T07:19:13.560Z,99.90
2018-03-31T07:24:20.278Z,99.90
2018-03-31T07:26:46.891Z,99.90
2018-03-31T07:29:13.467Z,99.90
2018-03-31T07:31:40.091Z,99.90
2018-03-31T07:34:07.524Z,99.90
2018-03-31T07:36:34.345Z,99.90
2018-03-31T07:39:00.984Z,99.90
2018-03-31T07:41:27.583Z,99.90
2018-03-31T07:46:22.666Z,99.90
2018-03-31T07:48:50.118Z,99.90
2018-03-31T07:51:16.726Z,99.90
2018-03-31T07:53:43.361Z,99.90
2018-03-31T07:56:11.146Z,99.90
2018-03-31T07:58:37.978Z,99.90
2018-03-31T08:01:05.605Z,99.90
2018-03-31T08:03:32.216Z,99.90
2018-03-31T08:05:58.770Z,99.90
2018-03-31T08:08:25.419Z,99.90
2018-03-31T08:10:51.973Z,99.90
2018-03-31T08:13:18.558Z,99.90
2018-03-31T08:15:45.204Z,99.90
2018-03-31T08:18:11.767Z,99.90
2018-03-31T08:20:38.334Z,99.90
2018-03-31T08:23:05.970Z,99.90
2018-03-31T08:25:32.530Z,99.90
2018-03-31T08:27:59.121Z,99.90
2018-03-31T08:30:25.824Z,99.90
2018-03-31T08:32:52.340Z,99.90
2018-03-31T08:35:18.981Z,99.90
2018-03-31T08:37:45.629Z,99.90
2018-03-31T08:40:13.038Z,99.90
2018-03-31T08:42:39.646Z,99.90
2018-03-31T08:45:06.343Z,99.90
2018-03-31T08:50:12.237Z,99.90
2018-03-31T08:52:38.840Z,98.80
2018-03-31T08:55:06.305Z,98.20
2018-03-31T08:57:33.967Z,95.50
2018-03-31T09:00:00.545Z,94.70
2018-03-31T09:02:27.126Z,95.60
2018-03-31T09:04:53.831Z,91.80
2018-03-31T09:07:21.282Z,93.80
2018-03-31T09:09:47.859Z,91.20
2018-03-31T09:12:15.552Z,91.70
2018-03-31T09:14:42.181Z,92.40
2018-03-31T09:17:09.736Z,91.80
2018-03-31T09:22:03.323Z,91.10
2018-03-31T09:24:30.345Z,89.70
2018-03-31T09:26:57.630Z,89.40
2018-03-31T09:29:24.241Z,90.80
2018-03-31T09:31:50.804Z,91.40
2018-03-31T09:34:17.472Z,89.50
2018-03-31T09:36:44.034Z,91.30
2018-03-31T09:39:10.604Z,92.90
2018-03-31T09:41:38.517Z,91.60
2018-03-31T09:44:05.112Z,86.70
2018-03-31T09:46:31.689Z,88.90
2018-03-31T09:48:58.352Z,90.10
2018-03-31T09:53:51.871Z,90.00
2018-03-31T09:56:18.528Z,88.20
2018-03-31T09:58:45.308Z,90.90
2018-03-31T10:01:11.892Z,88.80
2018-03-31T10:03:39.369Z,86.30
2018-03-31T10:06:05.940Z,88.80
2018-03-31T10:10:59.515Z,88.20
2018-03-31T10:13:26.132Z,88.00
2018-03-31T10:18:31.059Z,88.20
2018-03-31T10:20:58.572Z,89.20
2018-03-31T10:23:25.139Z,88.20
2018-03-31T10:25:51.768Z,87.00
2018-03-31T10:28:18.339Z,87.90
2018-03-31T10:30:45.206Z,87.30
2018-03-31T10:33:11.889Z,88.60
2018-03-31T10:35:38.467Z,86.90
2018-03-31T10:38:05.067Z,88.20
2018-03-31T10:40:32.556Z,87.40
2018-03-31T10:43:00.179Z,88.60
2018-03-31T10:45:26.739Z,88.60
2018-03-31T10:47:54.399Z,85.70
2018-03-31T10:50:20.986Z,82.70
2018-03-31T10:52:49.431Z,86.20
2018-03-31T10:55:16.098Z,82.30
2018-03-31T10:57:42.677Z,70.40
2018-03-31T11:00:09.269Z,61.70
2018-03-31T11:02:36.826Z,55.20
2018-03-31T11:05:03.410Z,57.10
2018-03-31T11:07:30.058Z,53.70
2018-03-31T11:09:56.721Z,49.90
2018-03-31T11:12:23.289Z,43.70
2018-03-31T11:14:49.864Z,47.70
2018-03-31T11:17:18.011Z,45.10
2018-03-31T11:19:44.605Z,47.10
2018-03-31T11:22:12.389Z,46.80
2018-03-31T11:24:40.021Z,46.70
2018-03-31T11:27:06.713Z,43.80
2018-03-31T11:29:33.294Z,43.40
2018-03-31T11:34:26.912Z,46.00
2018-03-31T11:36:53.480Z,45.40
2018-03-31T11:39:21.092Z,45.90
2018-03-31T11:44:25.821Z,43.50
2018-03-31T11:46:53.792Z,43.70
2018-03-31T11:49:21.346Z,44.20
2018-03-31T11:51:47.998Z,43.70
2018-03-31T11:54:14.613Z,44.00
2018-03-31T11:56:42.150Z,47.10
2018-03-31T11:59:08.815Z,46.50
2018-03-31T12:01:35.474Z,47.40
2018-03-31T12:04:03.018Z,46.30
2018-03-31T12:06:29.676Z,47.50
2018-03-31T12:08:56.265Z,45.60
2018-03-31T12:11:22.873Z,44.60
2018-03-31T12:13:50.508Z,46.10
2018-03-31T12:16:18.057Z,49.90
2018-03-31T12:18:44.652Z,47.80
2018-03-31T12:21:11.598Z,47.00
2018-03-31T12:23:39.177Z,46.90
2018-03-31T12:26:05.795Z,43.10
2018-03-31T12:28:32.431Z,43.90
2018-03-31T12:30:59.004Z,42.90
2018-03-31T12:33:25.602Z,44.70
2018-03-31T12:38:20.932Z,47.10
2018-03-31T12:40:48.449Z,47.60
2018-03-31T12:43:16.322Z,46.80
2018-03-31T12:45:42.910Z,45.20
2018-03-31T12:48:09.522Z,44.60
2018-03-31T12:50:37.311Z,45.20
2018-03-31T12:53:03.882Z,44.50
2018-03-31T12:55:30.881Z,45.50
2018-03-31T12:57:57.557Z,46.40
2018-03-31T13:03:02.611Z,48.00
2018-03-31T13:05:29.211Z,47.40
2018-03-31T13:07:56.753Z,48.40
2018-03-31T13:10:25.356Z,49.30
2018-03-31T13:12:53.111Z,48.80
2018-03-31T13:15:19.721Z,48.00
2018-03-31T13:20:13.290Z,46.00
2018-03-31T13:22:39.889Z,44.40
2018-03-31T13:25:07.884Z,45.40
2018-03-31T13:27:34.486Z,43.90
2018-03-31T13:30:01.063Z,44.50
2018-03-31T13:32:27.705Z,43.30
2018-03-31T13:34:54.294Z,43.50
2018-03-31T13:37:20.958Z,42.10
2018-03-31T13:39:48.579Z,43.40
2018-03-31T13:42:15.160Z,42.70
2018-03-31T13:44:41.753Z,44.00
2018-03-31T13:47:08.385Z,44.10
2018-03-31T13:49:34.955Z,43.10
2018-03-31T13:52:02.522Z,42.50
2018-03-31T13:54:29.173Z,44.50
2018-03-31T13:59:22.959Z,45.80
2018-03-31T14:01:49.626Z,44.70
2018-03-31T14:04:16.215Z,43.50
2018-03-31T14:06:42.812Z,44.80
2018-03-31T14:11:38.392Z,44.20
2018-03-31T14:14:05.010Z,45.60
2018-03-31T14:19:11.702Z,48.30
2018-03-31T14:21:38.394Z,50.20
2018-03-31T14:24:05.806Z,50.00
2018-03-31T14:26:32.371Z,52.80
2018-03-31T14:28:59.027Z,52.20
2018-03-31T14:31:26.485Z,55.40
2018-03-31T14:33:53.080Z,54.50
2018-03-31T14:38:47.489Z,54.10
2018-03-31T14:41:14.103Z,51.50
2018-03-31T14:43:40.733Z,52.70
2018-03-31T14:46:07.292Z,52.90
2018-03-31T14:51:00.830Z,53.70
2018-03-31T14:53:27.687Z,53.60
2018-03-31T14:55:55.123Z,55.40
2018-03-31T14:58:25.221Z,55.40
2018-03-31T15:00:51.784Z,56.20
2018-03-31T15:03:18.414Z,61.80
2018-03-31T15:05:46.103Z,62.90
2018-03-31T15:08:13.187Z,64.00
2018-03-31T15:10:39.838Z,63.00
2018-03-31T15:13:07.349Z,63.30
2018-03-31T15:15:34.434Z,70.40
2018-03-31T15:18:01.037Z,73.50
2018-03-31T15:20:28.206Z,72.90
2018-03-31T15:22:54.786Z,78.50
2018-03-31T15:25:22.345Z,78.10
2018-03-31T15:30:28.318Z,76.00
2018-03-31T15:32:56.343Z,75.20
2018-03-31T15:35:22.944Z,72.50
2018-03-31T15:37:49.527Z,69.20
2018-03-31T15:40:17.012Z,69.60
2018-03-31T15:42:43.597Z,69.40
2018-03-31T15:45:11.178Z,71.20
2018-03-31T15:47:37.856Z,71.00
2018-03-31T15:50:04.427Z,71.10
2018-03-31T15:52:30.991Z,69.70
2018-03-31T15:54:58.676Z,69.70
2018-03-31T15:57:25.280Z,68.10
2018-03-31T15:59:52.372Z,67.50
2018-03-31T16:02:19.860Z,66.10
2018-03-31T16:04:47.317Z,67.60
2018-03-31T16:07:13.935Z,66.90
2018-03-31T16:12:11.171Z,66.90
2018-03-31T16:14:37.747Z,63.50
2018-03-31T16:17:04.404Z,64.00
2018-03-31T16:19:30.999Z,62.80
2018-03-31T16:21:57.593Z,63.10
2018-03-31T16:24:24.274Z,61.60
2018-03-31T16:26:51.693Z,62.90
2018-03-31T16:29:18.295Z,61.30
2018-03-31T16:31:44.967Z,61.90
2018-03-31T16:34:11.583Z,64.10
2018-03-31T16:36:38.153Z,64.30
2018-03-31T16:41:43.800Z,63.00
2018-03-31T16:44:11.309Z,63.40
2018-03-31T16:49:06.764Z,64.50
2018-03-31T16:51:36.265Z,63.40
2018-03-31T16:54:00.066Z,61.90
2018-03-31T16:56:26.686Z,64.40
2018-03-31T16:58:53.335Z,61.30
2018-03-31T17:01:20.748Z,61.30
2018-03-31T17:03:47.337Z,60.50
2018-03-31T17:06:14.277Z,61.00
2018-03-31T17:08:40.832Z,62.20
2018-03-31T17:11:07.447Z,62.20
2018-03-31T17:13:34.039Z,61.70
2018-03-31T17:16:00.646Z,60.50
2018-03-31T17:18:28.109Z,60.80
2018-03-31T17:20:54.776Z,59.90
2018-03-31T17:23:21.325Z,60.90
2018-03-31T17:25:47.898Z,59.60
2018-03-31T17:28:14.966Z,59.20
2018-03-31T17:30:41.539Z,57.90
2018-03-31T17:33:08.127Z,59.20
2018-03-31T17:35:34.763Z,57.00
2018-03-31T17:38:01.338Z,58.40
2018-03-31T17:40:27.934Z,58.10
2018-03-31T17:42:55.460Z,58.30
2018-03-31T17:45:22.066Z,58.50
2018-03-31T17:47:48.631Z,59.00
2018-03-31T17:50:15.266Z,60.20
2018-03-31T17:52:42.376Z,59.40
2018-03-31T17:55:08.954Z,64.00
2018-03-31T17:57:35.604Z,67.50
2018-03-31T18:00:02.368Z,66.70
2018-03-31T18:02:28.962Z,70.10
2018-03-31T18:07:33.680Z,82.00
2018-03-31T18:10:01.148Z,86.70
2018-03-31T18:12:27.713Z,86.10
2018-03-31T18:14:54.350Z,88.80
2018-03-31T18:17:22.013Z,91.00
2018-03-31T18:19:48.599Z,89.60
2018-03-31T18:22:16.882Z,87.70
2018-03-31T18:24:44.398Z,86.90
2018-03-31T18:29:38.821Z,80.90
2018-03-31T18:32:06.421Z,83.70
2018-03-31T18:34:32.999Z,85.30
2018-03-31T18:36:59.578Z,86.20
2018-03-31T18:39:27.933Z,85.80
2018-03-31T18:41:54.505Z,88.60
2018-03-31T18:44:21.075Z,89.10
2018-03-31T18:46:47.793Z,89.70
2018-03-31T18:49:14.363Z,90.50
2018-03-31T18:51:40.985Z,90.50
2018-03-31T18:54:07.640Z,92.60
2018-03-31T18:56:34.221Z,95.60
2018-03-31T18:59:00.798Z,96.20
2018-03-31T19:01:27.431Z,94.00
2018-03-31T19:03:54.990Z,68.90
2018-03-31T19:06:21.592Z,74.80
2018-03-31T19:08:48.253Z,81.20
2018-03-31T19:11:15.793Z,83.20
2018-03-31T19:13:42.365Z,87.00
2018-03-31T19:16:09.037Z,82.00
2018-03-31T19:18:35.612Z,84.30
2018-03-31T19:21:02.185Z,87.50
2018-03-31T19:23:28.867Z,92.00
2018-03-31T19:25:55.379Z,88.90
2018-03-31T19:31:03.115Z,95.80
2018-03-31T19:33:29.717Z,99.80
2018-03-31T19:35:56.288Z,86.70
2018-03-31T19:38:22.902Z,83.50
2018-03-31T19:40:49.731Z,86.20
2018-03-31T19:43:16.330Z,89.90
2018-03-31T19:45:43.278Z,89.10
2018-03-31T19:48:09.889Z,90.30
2018-03-31T19:53:03.460Z,93.80
2018-03-31T19:55:30.284Z,92.70
2018-03-31T19:57:59.949Z,93.20
2018-03-31T20:00:27.371Z,94.00
2018-03-31T20:02:53.945Z,94.10
2018-03-31T20:05:20.527Z,94.40
2018-03-31T20:07:48.460Z,95.60
2018-03-31T20:10:15.956Z,96.90
2018-03-31T20:12:43.491Z,97.60
2018-03-31T20:15:11.102Z,97.50
2018-03-31T20:17:37.685Z,93.90
2018-03-31T20:20:04.262Z,91.40
2018-03-31T20:22:30.924Z,84.20
2018-03-31T20:24:57.497Z,85.50
2018-03-31T20:27:24.957Z,84.90
2018-03-31T20:29:52.485Z,89.90
2018-03-31T20:32:20.086Z,87.50
2018-03-31T20:34:47.618Z,85.30
2018-03-31T20:37:14.271Z,86.10
2018-03-31T20:39:40.848Z,86.70
2018-03-31T20:42:08.653Z,89.20
2018-03-31T20:44:35.321Z,90.30
2018-03-31T20:47:01.897Z,89.70
2018-03-31T20:49:29.358Z,89.20
2018-03-31T20:54:33.992Z,88.50
2018-03-31T20:57:00.880Z,87.90
2018-03-31T20:59:27.451Z,90.20
2018-03-31T21:01:55.000Z,85.80
2018-03-31T21:04:21.702Z,90.60
2018-03-31T21:06:48.275Z,92.40
2018-03-31T21:09:14.872Z,92.40
2018-03-31T21:11:41.517Z,92.80
2018-03-31T21:14:08.095Z,93.10
2018-03-31T21:16:34.702Z,92.90
2018-03-31T21:19:02.375Z,94.10
2018-03-31T21:23:56.734Z,95.50
2018-03-31T21:26:23.388Z,95.00
2018-03-31T21:28:49.996Z,92.70
2018-03-31T21:31:16.593Z,94.20
2018-03-31T21:36:10.966Z,89.70
2018-03-31T21:38:37.542Z,88.10
2018-03-31T21:41:04.217Z,89.00
2018-03-31T21:43:30.815Z,92.10
2018-03-31T21:45:57.420Z,93.40
2018-03-31T21:48:24.056Z,94.70
2018-03-31T21:50:50.630Z,95.90
2018-03-31T21:53:17.198Z,95.90
2018-03-31T21:55:43.896Z,97.00
2018-03-31T21:58:10.507Z,97.30
2018-03-31T22:00:37.095Z,96.70
2018-03-31T22:03:04.542Z,97.60
2018-03-31T22:05:31.505Z,98.30
2018-03-31T22:07:59.082Z,98.30
2018-03-31T22:10:26.596Z,97.30
2018-03-31T22:12:53.171Z,98.00
2018-03-31T22:15:19.717Z,98.10
2018-03-31T22:17:46.908Z,97.90
2018-03-31T22:20:13.472Z,97.90
2018-03-31T22:25:19.121Z,96.30
2018-03-31T22:27:46.593Z,94.90
2018-03-31T22:30:13.178Z,96.10
2018-03-31T22:32:39.810Z,98.30
2018-03-31T22:35:07.359Z,98.90
2018-03-31T22:40:01.438Z,99.90
2018-03-31T22:42:28.802Z,99.90
2018-03-31T22:47:24.151Z,99.90
2018-03-31T22:49:51.112Z,99.90
2018-03-31T22:52:17.697Z,99.90
2018-03-31T22:54:45.047Z,99.90
2018-03-31T22:57:11.617Z,99.90
2018-03-31T22:59:38.446Z,99.90
2018-03-31T23:02:05.104Z,99.90
2018-03-31T23:04:31.713Z,99.90
2018-03-31T23:06:58.280Z,99.90
2018-03-31T23:09:24.905Z,99.90
2018-03-31T23:11:51.493Z,99.90
2018-03-31T23:14:18.912Z,99.90
2018-03-31T23:16:45.549Z,99.90
2018-03-31T23:19:12.106Z,99.90
2018-03-31T23:21:38.677Z,99.90
2018-03-31T23:24:05.761Z,99.90
2018-03-31T23:26:32.324Z,99.90
2018-03-31T23:28:58.886Z,99.90
2018-03-31T23:31:25.541Z,99.90
2018-03-31T23:33:52.859Z,99.90
2018-03-31T23:36:22.556Z,99.90
2018-03-31T23:38:50.604Z,99.90
2018-03-31T23:41:17.165Z,99.90
2018-03-31T23:43:44.682Z,99.90
2018-03-31T23:46:11.333Z,99.90
2018-03-31T23:51:17.273Z,99.90
2018-03-31T23:53:44.222Z,99.90
2018-03-31T23:56:11.801Z,99.90
2018-03-31T23:58:39.392Z,99.90
